Terminal Aerodrome Forecast
Issued by NWS Glasgow, MT

Home | Current Version | Previous Version | Text Only | Print | Product List | Glossary On
Versions: 1 2 3 4 5 6 7 8 9 10 11 12 13
401
FTUS45 KGGW 230522
TAFGGW
TAF
KGGW 230522Z 2306/2406 VRB05KT P6SM SCT180
     FM231200 29007KT P6SM SCT030
     FM240100 22005KT P6SM FEW014
     FM240300 14005KT P6SM SCT008=

USA.gov is the U.S. government's official web portal to all federal, state and local government web resources and services.